Etusivu
METAR-TAF:

METAR-TAF

Lentoasemat :

Red Oak Municipal Airport

Red Oak, Iowa, Yhdysvallat

Leveyspiiri: 41-01N, Pituuspiiri: 095-16W, korkeus merenpinnasta: 318 m

Tämänhetkinen sää

Tämä raportti tehtiin 14 minuuttia sitten, kello 02.15 UTC
Tuuli 7 kn luoteesta puuskistuen 14 kn:hen
Lämpötila 10°C
Kosteus 82%
Ilmanpaine 1006 hPa
Näkyvyys: 16.1 km
Hajanaisia pilviä 4800 ft:n korkeudessa
Hajanaisia pilviä 5500 ft:n korkeudessa

METAR: KRDK 190215Z AUTO 32007G14KT 10SM SCT048 SCT055 10/07 A2972 RMK AO2

Aika: 20:29 (02:29 UTC)


TAF: puuttuu

Säähavainnot ja -ennusteet yli 4000 lentoasemalta (METAR- ja TAF-raportit).

Käytössä olevat sääasemat on merkitty karttaan keltaisilla ja punaisilla pisteillä.

Aseta hiiri pisteen päälle nähdäksesi sääaseman nimen.

Klikkaa sitten nähdäksesi säähavainnot ja -ennusteet.

Kartan vaihtaminen: klikkaa mustalla rastilla varustettuja vihreitä pisteitä, niin voit zoomata sisään; viivalla varustettua vihreää pistettä, niin voit zoomata ulos tai vihreitä nuolia, niin pääset viereisille kartoille.


METAR-TAF: